Time;durP1;ratioP1;P1;durP2;ratioP2;P2;SDS_P1;SDS_P2;PMS_P1;PMS_P2;Temp;Humidity;BMP_temperature;BMP_pressure;BME280_temperature;BME280_humidity;BME280_pressure;Samples;Min_cycle;Max_cycle;Signal;HPM_P1;HPM_P2
2021/11/20 00:00:23;;;;;;;3.10;2.80;;;5.50;99.90;4.90;97551.00;;;;5032310;28;20205;-71
2021/11/20 00:03:13;;;;;;;3.17;2.40;;;5.40;99.90;5.20;97545.00;;;;5046998;28;20232;-71
2021/11/20 00:06:02;;;;;;;2.00;1.80;;;5.40;99.90;5.30;97542.00;;;;5047634;28;20208;-71
2021/11/20 00:08:52;;;;;;;2.70;2.13;;;5.40;99.90;5.40;97546.00;;;;5037275;28;20288;-71
2021/11/20 00:11:43;;;;;;;1.93;1.73;;;5.40;99.90;5.40;97547.00;;;;5047775;28;20232;-71
2021/11/20 00:14:33;;;;;;;3.30;1.87;;;5.40;99.90;5.30;97548.00;;;;5034210;28;20216;-71
2021/11/20 00:17:24;;;;;;;4.60;1.47;;;5.10;99.90;5.30;97551.00;;;;5046614;28;20205;-71
2021/11/20 00:20:19;;;;;;;2.67;1.37;;;5.50;99.90;5.10;97552.00;;;;5046732;28;20204;-72
2021/11/20 00:23:08;;;;;;;2.13;1.63;;;5.50;99.90;5.10;97558.00;;;;5035267;28;20216;-71
2021/11/20 00:25:59;;;;;;;5.87;1.33;;;5.40;99.90;5.10;97558.00;;;;5046966;28;20211;-71
2021/11/20 00:32:01;;;;;;;2.23;1.70;;;5.40;99.90;4.70;97550.00;;;;5044854;28;20627;-71
2021/11/20 00:34:51;;;;;;;1.30;1.20;;;5.30;99.90;4.80;97544.00;;;;5046825;28;20205;-71
2021/11/20 00:37:41;;;;;;;3.97;1.57;;;5.20;99.90;4.80;97555.00;;;;5042353;28;20204;-71
2021/11/20 00:40:36;;;;;;;1.83;1.57;;;5.20;99.90;4.70;97565.00;;;;5043919;28;20684;-72
2021/11/20 00:43:26;;;;;;;3.67;1.43;;;5.10;99.90;4.80;97558.00;;;;5046483;28;20579;-72
2021/11/20 00:46:18;;;;;;;1.83;1.30;;;5.10;99.90;4.80;97560.00;;;;5035979;28;20205;-71
2021/11/20 00:49:08;;;;;;;1.20;1.10;;;5.10;99.90;4.80;97572.00;;;;5035041;28;20231;-71
2021/11/20 00:51:58;;;;;;;1.20;1.10;;;5.10;99.90;4.80;97565.00;;;;5046321;28;20247;-71
2021/11/20 00:54:47;;;;;;;2.07;1.13;;;5.10;99.90;4.90;97574.00;;;;5046119;28;20216;-72
2021/11/20 00:57:36;;;;;;;2.20;1.20;;;5.10;99.90;4.70;97568.00;;;;5045636;28;20719;-71
2021/11/20 01:00:29;;;;;;;3.13;1.27;;;5.10;99.90;4.50;97562.00;;;;5047319;28;20201;-72
2021/11/20 01:03:18;;;;;;;3.13;1.27;;;5.00;99.90;4.60;97555.00;;;;5042916;28;20231;-72
2021/11/20 01:06:08;;;;;;;1.90;1.27;;;5.00;99.90;4.60;97551.00;;;;5040606;28;20197;-72
2021/11/20 01:08:59;;;;;;;1.23;1.13;;;4.90;99.90;4.40;97555.00;;;;5046347;28;20791;-71
2021/11/20 01:11:52;;;;;;;3.07;1.57;;;4.80;99.90;4.30;97558.00;;;;5046181;28;20721;-71
2021/11/20 01:14:44;;;;;;;1.90;1.43;;;4.80;99.90;4.40;97559.00;;;;5031718;28;21270;-72
2021/11/20 01:17:33;;;;;;;1.20;1.10;;;4.70;99.90;4.50;97560.00;;;;5045804;28;20694;-71
2021/11/20 01:20:22;;;;;;;1.23;1.10;;;4.70;99.90;4.60;97553.00;;;;5037361;28;20197;-71
2021/11/20 01:23:11;;;;;;;1.70;1.20;;;4.70;99.90;4.30;97555.00;;;;5034518;28;20215;-72
2021/11/20 01:26:02;;;;;;;1.90;1.10;;;4.70;99.90;4.20;97549.00;;;;5045056;28;20599;-71
2021/11/20 01:28:55;;;;;;;1.10;1.00;;;4.60;99.90;4.00;97540.00;;;;5044935;28;20637;-71
2021/11/20 01:31:49;;;;;;;0.70;0.70;;;4.50;99.90;4.20;97541.00;;;;5045382;28;20613;-71
2021/11/20 01:34:38;;;;;;;2.77;1.30;;;4.50;99.90;4.00;97540.00;;;;5045797;28;20200;-71
2021/11/20 01:37:27;;;;;;;1.83;1.20;;;4.40;99.90;4.00;97554.00;;;;5031740;28;20208;-73
2021/11/20 01:40:20;;;;;;;2.87;1.03;;;4.40;99.90;3.90;97552.00;;;;5045120;28;20197;-72
2021/11/20 01:43:11;;;;;;;1.57;1.07;;;4.30;99.90;3.80;97557.00;;;;5046303;28;20209;-71
2021/11/20 01:46:06;;;;;;;3.73;1.87;;;4.30;99.90;3.90;97555.00;;;;5045464;28;20539;-72
2021/11/20 01:49:05;;;;;;;1.93;1.37;;;4.30;99.90;4.00;97551.00;;;;5032398;28;20192;-72
2021/11/20 01:51:58;;;;;;;3.47;1.80;;;4.30;99.90;3.80;97559.00;;;;5045737;28;20443;-71
2021/11/20 01:54:58;;;;;;;1.60;1.10;;;4.30;99.90;3.70;97553.00;;;;5045430;28;20208;-71
2021/11/20 01:57:55;;;;;;;1.40;1.30;;;4.20;99.90;3.80;97549.00;;;;5046143;28;20992;-71
2021/11/20 02:00:51;;;;;;;2.70;1.70;;;4.20;99.90;3.80;97549.00;;;;5033892;28;20589;-71
2021/11/20 02:03:48;;;;;;;2.07;1.00;;;4.10;99.90;3.30;97532.00;;;;5032430;28;20597;-71
2021/11/20 02:06:45;;;;;;;1.90;0.97;;;4.10;99.90;3.10;97541.00;;;;5037251;28;20209;-71
2021/11/20 02:09:41;;;;;;;2.23;1.23;;;3.90;99.90;3.20;97541.00;;;;5045296;28;20209;-72
2021/11/20 02:12:36;;;;;;;1.53;1.00;;;3.80;99.90;3.30;97539.00;;;;5043469;28;20446;-71
2021/11/20 02:15:30;;;;;;;1.03;0.93;;;3.70;99.90;3.30;97530.00;;;;5036922;28;20200;-72
2021/11/20 02:18:25;;;;;;;1.50;1.40;;;3.70;99.90;3.20;97542.00;;;;5033807;28;20212;-71
2021/11/20 02:21:20;;;;;;;2.50;1.57;;;3.70;99.90;3.20;97530.00;;;;5044690;28;20232;-71
2021/11/20 02:24:08;;;;;;;2.10;1.30;;;3.60;99.90;3.30;97530.00;;;;5033778;28;21012;-72
2021/11/20 02:26:56;;;;;;;3.30;1.13;;;3.60;99.90;3.30;97527.00;;;;5045142;28;20820;-71
2021/11/20 02:29:46;;;;;;;3.13;1.07;;;3.60;99.90;2.90;97529.00;;;;5035116;28;20814;-71
2021/11/20 02:32:36;;;;;;;1.30;1.00;;;3.60;99.90;3.30;97527.00;;;;5045199;28;20443;-71
2021/11/20 02:35:30;;;;;;;1.23;1.10;;;3.60;99.90;3.30;97524.00;;;;5044790;28;20586;-71
2021/11/20 02:38:22;;;;;;;4.43;1.23;;;3.70;99.90;3.40;97522.00;;;;5045473;28;20439;-72
2021/11/20 02:41:16;;;;;;;2.50;1.87;;;3.70;99.90;3.30;97525.00;;;;5043349;28;20448;-72
2021/11/20 02:44:08;;;;;;;4.63;2.07;;;3.70;99.90;3.20;97524.00;;;;5044905;28;20239;-71
2021/11/20 02:47:00;;;;;;;1.57;1.47;;;3.70;99.90;3.30;97526.00;;;;5045137;28;20442;-71
2021/11/20 02:49:51;;;;;;;1.80;1.13;;;3.70;99.90;3.60;97524.00;;;;5044268;28;20435;-71
2021/11/20 02:52:40;;;;;;;2.43;1.40;;;3.80;99.90;3.60;97537.00;;;;5044512;28;21083;-71
2021/11/20 02:55:29;;;;;;;1.00;0.90;;;3.80;99.90;3.20;97522.00;;;;5032464;28;20205;-71
2021/11/20 02:58:21;;;;;;;1.40;0.93;;;3.80;99.90;3.10;97527.00;;;;5043266;28;20209;-71
2021/11/20 03:01:14;;;;;;;0.93;0.87;;;3.70;99.90;3.30;97529.00;;;;5043970;28;20447;-71
2021/11/20 03:04:04;;;;;;;3.40;0.90;;;3.60;99.90;3.30;97519.00;;;;5044155;28;20520;-71
2021/11/20 03:06:57;;;;;;;1.73;0.97;;;3.70;99.90;3.20;97520.00;;;;5043780;28;20427;-72
2021/11/20 03:09:46;;;;;;;1.90;1.40;;;3.70;99.90;3.20;97517.00;;;;5044832;28;20431;-72
2021/11/20 03:12:35;;;;;;;0.80;0.80;;;3.60;99.90;2.90;97519.00;;;;5042958;28;20454;-72
2021/11/20 03:15:24;;;;;;;1.10;1.00;;;3.60;99.90;2.90;97515.00;;;;5037076;28;20802;-71
2021/11/20 03:18:13;;;;;;;1.60;1.30;;;3.50;99.90;3.10;97516.00;;;;5032769;28;20434;-71
2021/11/20 03:21:02;;;;;;;2.83;0.97;;;3.40;99.90;2.80;97511.00;;;;5045406;28;20455;-71
2021/11/20 03:23:56;;;;;;;1.70;1.03;;;3.40;99.90;3.00;97505.00;;;;5048226;28;20526;-71
2021/11/20 03:26:46;;;;;;;0.93;0.87;;;3.40;99.90;2.80;97509.00;;;;5048145;28;20415;-71
2021/11/20 03:29:35;;;;;;;1.60;0.93;;;3.40;99.90;2.60;97504.00;;;;5046856;28;20401;-71
2021/11/20 03:32:24;;;;;;;1.43;1.03;;;3.30;99.90;2.70;97500.00;;;;5044180;28;20946;-71
2021/11/20 03:35:14;;;;;;;1.10;1.00;;;3.20;99.90;2.90;97510.00;;;;5031249;28;20201;-71
2021/11/20 03:38:05;;;;;;;1.20;1.10;;;3.30;99.90;2.90;97521.00;;;;5036089;28;20474;-71
2021/11/20 03:40:56;;;;;;;1.33;0.90;;;3.30;99.90;2.70;97501.00;;;;5034069;28;20201;-72
2021/11/20 03:43:45;;;;;;;1.10;1.00;;;3.20;99.90;2.50;97491.00;;;;5047852;28;20212;-71
2021/11/20 03:46:35;;;;;;;0.87;0.77;;;3.20;99.90;2.90;97500.00;;;;5046959;28;20470;-72
2021/11/20 03:49:24;;;;;;;1.13;0.90;;;3.20;99.90;3.00;97503.00;;;;5047258;28;20434;-72
2021/11/20 03:52:14;;;;;;;1.73;1.00;;;3.30;99.90;2.70;97496.00;;;;5047341;28;20397;-72
2021/11/20 03:55:05;;;;;;;1.88;1.10;;;3.30;99.90;2.70;97503.00;;;;5045239;28;20401;-71
2021/11/20 03:57:56;;;;;;;2.80;1.20;;;3.20;99.90;2.80;97503.00;;;;5039823;28;20592;-71
2021/11/20 04:00:50;;;;;;;1.00;0.87;;;3.20;99.90;2.70;97502.00;;;;5036544;28;20193;-71
2021/11/20 04:03:41;;;;;;;0.80;0.80;;;3.20;99.90;2.70;97494.00;;;;5048395;28;20240;-71
2021/11/20 04:06:30;;;;;;;1.30;1.20;;;3.20;99.90;2.30;97501.00;;;;5048151;28;20479;-72
2021/11/20 04:09:19;;;;;;;3.53;1.10;;;3.10;99.90;2.40;97495.00;;;;5045615;28;20439;-71
2021/11/20 04:12:10;;;;;;;1.13;0.80;;;3.00;99.90;2.40;97496.00;;;;5046534;28;20439;-71
2021/11/20 04:15:00;;;;;;;1.13;0.97;;;2.90;99.90;2.30;97497.00;;;;5035847;28;20435;-71
2021/11/20 04:17:49;;;;;;;1.57;1.10;;;2.80;99.90;2.20;97501.00;;;;5046087;28;20795;-71
2021/11/20 04:20:38;;;;;;;1.40;0.93;;;2.80;99.90;2.40;97498.00;;;;5047142;28;20431;-71
2021/11/20 04:23:27;;;;;;;1.10;1.00;;;2.40;99.90;2.30;97493.00;;;;5047099;28;20419;-71
2021/11/20 04:26:18;;;;;;;2.13;1.20;;;2.80;99.90;2.60;97503.00;;;;5046833;28;20475;-71
2021/11/20 04:29:07;;;;;;;1.20;1.10;;;2.80;99.90;2.00;97494.00;;;;5045292;28;20430;-71
2021/11/20 04:31:57;;;;;;;1.07;0.80;;;2.80;99.90;2.00;97488.00;;;;5047312;28;20454;-72
2021/11/20 04:34:46;;;;;;;3.50;0.93;;;2.60;99.90;2.00;97490.00;;;;5047911;28;20428;-71
2021/11/20 04:37:36;;;;;;;3.80;0.90;;;2.50;99.90;2.10;97495.00;;;;5045948;28;20775;-71
2021/11/20 04:40:26;;;;;;;2.27;1.20;;;2.60;99.90;2.20;97488.00;;;;5046144;28;20446;-71
2021/11/20 04:43:15;;;;;;;0.80;0.80;;;2.50;99.90;2.00;97502.00;;;;5044316;28;20442;-71
2021/11/20 04:46:04;;;;;;;0.80;0.80;;;2.50;99.90;2.10;97500.00;;;;5046991;28;20490;-71
2021/11/20 04:48:54;;;;;;;1.10;1.00;;;2.50;99.90;2.10;97499.00;;;;5033199;28;20442;-71
2021/11/20 04:51:43;;;;;;;1.47;1.33;;;2.50;99.90;2.10;97502.00;;;;5046712;28;20443;-71
2021/11/20 04:54:32;;;;;;;2.23;1.83;;;2.50;99.90;1.80;97489.00;;;;5046590;28;20938;-71
2021/11/20 04:57:21;;;;;;;4.10;2.80;;;2.50;99.90;1.80;97492.00;;;;5036037;28;20439;-71
2021/11/20 05:00:15;;;;;;;2.97;2.77;;;2.40;99.90;1.90;97509.00;;;;5047502;28;20423;-71
2021/11/20 05:03:05;;;;;;;3.20;2.23;;;2.40;99.90;1.70;97502.00;;;;5043000;28;20424;-72
2021/11/20 05:05:57;;;;;;;1.90;1.80;;;2.30;99.90;1.70;97502.00;;;;5045705;28;20482;-72
2021/11/20 05:08:46;;;;;;;1.53;1.37;;;2.30;99.90;1.70;97501.00;;;;5036350;28;20431;-71
2021/11/20 05:11:36;;;;;;;1.97;1.23;;;2.20;99.90;1.70;97501.00;;;;5046464;28;20459;-71
2021/11/20 05:14:25;;;;;;;3.70;1.47;;;2.20;99.90;1.90;97500.00;;;;5032197;28;20435;-71
2021/11/20 05:17:13;;;;;;;3.47;2.27;;;2.30;99.90;2.00;97490.00;;;;5045435;28;20438;-72
2021/11/20 05:20:03;;;;;;;1.83;1.73;;;2.30;99.90;1.90;97500.00;;;;5044848;28;20442;-71
2021/11/20 05:22:54;;;;;;;1.50;1.40;;;2.40;99.90;1.90;97496.00;;;;5045767;28;20473;-71
2021/11/20 05:25:43;;;;;;;1.00;1.00;;;2.40;99.90;1.80;97493.00;;;;5045583;28;20475;-71
2021/11/20 05:28:32;;;;;;;0.80;0.80;;;2.40;99.90;1.90;97502.00;;;;5044665;28;20943;-72
2021/11/20 05:31:22;;;;;;;0.90;0.90;;;2.60;99.90;1.90;97496.00;;;;5039033;28;20459;-72
2021/11/20 05:34:11;;;;;;;2.07;1.00;;;2.30;99.90;1.90;97495.00;;;;5030225;28;20790;-72
2021/11/20 05:36:59;;;;;;;1.97;1.20;;;2.30;99.90;1.90;97486.00;;;;5041508;28;20442;-72
2021/11/20 05:39:50;;;;;;;0.87;0.87;;;2.30;99.90;1.60;97483.00;;;;5045386;28;20439;-72
2021/11/20 05:42:39;;;;;;;1.53;1.20;;;2.30;99.90;1.70;97495.00;;;;5043097;28;20451;-71
2021/11/20 05:45:32;;;;;;;1.20;1.00;;;2.30;99.90;1.80;97480.00;;;;5044766;28;20947;-72
2021/11/20 05:48:22;;;;;;;1.77;1.30;;;2.20;99.90;1.80;97494.00;;;;5045772;28;20424;-72
2021/11/20 05:51:12;;;;;;;1.87;1.50;;;2.20;99.90;1.80;97481.00;;;;5044767;28;20450;-72
2021/11/20 05:54:00;;;;;;;4.03;2.07;;;2.30;99.90;1.70;97491.00;;;;5044887;28;20867;-71
2021/11/20 05:56:51;;;;;;;1.63;1.53;;;2.20;99.90;1.70;97486.00;;;;5044697;28;20439;-71
2021/11/20 05:59:40;;;;;;;1.57;1.47;;;2.20;99.90;1.60;97487.00;;;;5043996;28;20801;-71
2021/11/20 06:02:29;;;;;;;4.50;2.67;;;2.10;99.90;1.60;97490.00;;;;5031853;28;20518;-71
2021/11/20 06:05:18;;;;;;;1.53;1.43;;;2.10;99.90;1.40;97491.00;;;;5037378;28;20424;-71
2021/11/20 06:08:08;;;;;;;1.70;1.53;;;2.10;99.90;1.10;97486.00;;;;5042020;28;20806;-72
2021/11/20 06:11:00;;;;;;;4.20;1.93;;;2.00;99.90;1.30;97485.00;;;;5029380;28;20445;-71
2021/11/20 06:13:50;;;;;;;1.50;1.40;;;1.90;99.90;1.50;97493.00;;;;5033450;28;20447;-72
2021/11/20 06:16:39;;;;;;;1.60;1.50;;;1.90;99.90;1.50;97480.00;;;;5045340;28;20930;-71
2021/11/20 06:19:28;;;;;;;3.57;2.13;;;2.00;99.90;1.50;97494.00;;;;5032045;28;20455;-71
2021/11/20 06:22:20;;;;;;;1.37;1.23;;;1.90;99.90;1.60;97499.00;;;;5045109;28;20443;-72
2021/11/20 06:25:11;;;;;;;2.90;2.07;;;2.00;99.90;1.80;97509.00;;;;5044422;28;20426;-71
2021/11/20 06:28:00;;;;;;;2.73;1.83;;;2.10;99.90;1.80;97512.00;;;;5045318;28;20416;-72
2021/11/20 06:30:51;;;;;;;1.83;1.73;;;2.20;99.90;1.70;97527.00;;;;5045189;28;20427;-71
2021/11/20 06:33:41;;;;;;;1.50;1.37;;;2.20;99.90;1.70;97512.00;;;;5045407;28;20430;-72
2021/11/20 06:36:31;;;;;;;2.77;1.70;;;2.20;99.90;1.20;97513.00;;;;5039594;28;20454;-71
2021/11/20 06:39:20;;;;;;;3.17;1.70;;;2.10;99.90;1.30;97520.00;;;;5032741;28;20432;-71
2021/11/20 06:42:09;;;;;;;2.13;1.70;;;2.00;99.90;1.60;97531.00;;;;5043056;28;20447;-71
2021/11/20 06:44:58;;;;;;;2.63;1.83;;;2.00;99.90;1.80;97542.00;;;;5042005;28;20432;-72
2021/11/20 06:47:49;;;;;;;1.90;1.70;;;2.50;99.90;1.80;97525.00;;;;5033175;28;20448;-71
2021/11/20 06:50:40;;;;;;;1.50;1.40;;;2.10;99.90;1.80;97538.00;;;;5036430;28;20431;-71
2021/11/20 06:53:29;;;;;;;3.37;2.80;;;2.20;99.90;1.70;97533.00;;;;5037117;28;20431;-71
2021/11/20 06:56:27;;;;;;;2.53;2.33;;;2.20;99.90;1.60;97533.00;;;;5046592;28;20430;-72
2021/11/20 07:00:25;;;;;;;4.23;3.83;;;2.20;99.90;1.40;97532.00;;;;5030994;28;20707;-71
2021/11/20 07:02:36;;;;;;;5.83;3.47;;;2.10;99.90;1.70;97550.00;;;;5038435;28;20463;-70
2021/11/20 07:05:40;;;;;;;4.10;2.60;;;2.20;99.90;1.70;97548.00;;;;5033653;28;20440;-70
2021/11/20 07:08:30;;;;;;;3.83;2.93;;;2.20;99.90;1.80;97558.00;;;;5041542;28;20427;-70
2021/11/20 07:11:19;;;;;;;3.60;3.30;;;2.30;99.90;1.90;97544.00;;;;5040519;28;20451;-72
2021/11/20 07:14:08;;;;;;;3.33;3.03;;;2.30;99.90;1.40;97533.00;;;;5036396;28;20440;-71
2021/11/20 07:16:57;;;;;;;7.90;3.83;;;2.30;99.90;1.60;97553.00;;;;5035784;28;20420;-71
2021/11/20 07:19:46;;;;;;;4.47;2.63;;;2.30;99.90;1.70;97548.00;;;;5040956;28;20911;-72
2021/11/20 07:22:37;;;;;;;4.07;3.37;;;2.30;99.90;1.80;97559.00;;;;5043416;28;20833;-72
2021/11/20 07:25:27;;;;;;;4.83;3.63;;;2.30;99.90;1.90;97559.00;;;;5033750;28;20427;-72
2021/11/20 07:28:17;;;;;;;3.40;2.47;;;2.30;99.90;2.00;97567.00;;;;5041725;28;20469;-71
2021/11/20 07:31:06;;;;;;;3.87;2.73;;;2.30;99.90;2.10;97569.00;;;;5035461;28;20443;-71
2021/11/20 07:33:54;;;;;;;3.83;3.37;;;2.40;99.90;1.90;97572.00;;;;5048185;28;20419;-71
2021/11/20 07:36:44;;;;;;;3.70;2.87;;;2.40;99.90;2.10;97575.00;;;;5037346;28;20431;-72
2021/11/20 07:39:35;;;;;;;5.37;3.90;;;2.40;99.90;2.30;97575.00;;;;5047519;28;20443;-72
2021/11/20 07:42:23;;;;;;;4.43;3.97;;;2.50;99.90;2.30;97568.00;;;;5044992;28;20439;-71
2021/11/20 07:45:13;;;;;;;5.60;4.20;;;2.60;99.90;2.30;97579.00;;;;5036043;28;20428;-72
2021/11/20 07:48:05;;;;;;;6.37;3.20;;;2.70;99.90;2.60;97579.00;;;;5042814;28;20981;-72
2021/11/20 07:50:58;;;;;;;5.77;3.30;;;2.80;99.90;2.30;97585.00;;;;5047920;28;20813;-72
2021/11/20 07:53:48;;;;;;;4.67;3.53;;;2.80;99.90;2.30;97566.00;;;;5037144;28;20419;-72
2021/11/20 07:56:41;;;;;;;4.83;3.97;;;2.80;99.90;2.50;97583.00;;;;5040122;28;20427;-72
2021/11/20 07:59:30;;;;;;;4.27;3.07;;;2.90;99.90;2.60;97574.00;;;;5032257;28;20427;-72
2021/11/20 08:02:21;;;;;;;5.07;4.37;;;3.00;99.90;2.60;97572.00;;;;5035084;28;20831;-72
2021/11/20 08:05:10;;;;;;;10.07;7.77;;;3.00;99.90;2.70;97567.00;;;;5043443;28;20999;-72
2021/11/20 08:08:05;;;;;;;7.57;4.83;;;3.10;99.90;2.70;97571.00;;;;5037126;28;21032;-73
2021/11/20 08:10:56;;;;;;;5.13;4.33;;;3.10;99.90;2.80;97574.00;;;;5041175;28;20439;-73
2021/11/20 08:13:46;;;;;;;4.27;3.80;;;3.10;99.90;2.70;97556.00;;;;5030219;28;20439;-73
2021/11/20 08:16:38;;;;;;;5.73;3.93;;;3.20;99.90;2.70;97553.00;;;;5036846;28;20423;-74
2021/11/20 08:19:27;;;;;;;10.53;5.90;;;3.20;99.90;2.90;97556.00;;;;5039417;28;20432;-73
2021/11/20 08:22:19;;;;;;;6.30;4.40;;;3.30;99.90;3.30;97567.00;;;;5041015;28;20484;-73
2021/11/20 08:25:12;;;;;;;5.67;4.07;;;3.40;99.90;3.60;97568.00;;;;5030551;28;20597;-73
2021/11/20 08:28:01;;;;;;;3.10;2.80;;;3.60;99.90;3.90;97567.00;;;;5035643;28;20470;-73
2021/11/20 08:30:51;;;;;;;4.57;3.73;;;3.80;99.90;4.20;97569.00;;;;5044746;28;20208;-73
2021/11/20 08:33:41;;;;;;;5.07;3.30;;;4.00;99.90;4.60;97563.00;;;;5039551;28;20208;-72
2021/11/20 08:36:29;;;;;;;4.17;3.63;;;4.20;99.90;4.80;97566.00;;;;5043940;28;20207;-72
2021/11/20 08:39:19;;;;;;;7.93;3.70;;;4.50;99.90;4.90;97564.00;;;;5034605;28;20211;-71
2021/11/20 08:42:09;;;;;;;3.53;2.60;;;4.70;99.90;4.80;97555.00;;;;5039181;28;20208;-72
2021/11/20 08:44:58;;;;;;;9.83;3.83;;;4.80;99.90;5.10;97545.00;;;;5036114;28;20201;-72
2021/11/20 08:47:53;;;;;;;7.90;3.20;;;5.00;99.90;5.10;97544.00;;;;5030708;28;20229;-71
2021/11/20 08:50:45;;;;;;;5.10;3.70;;;5.10;99.90;5.10;97554.00;;;;5037248;28;20196;-72
2021/11/20 08:53:34;;;;;;;4.93;2.97;;;5.20;99.90;5.10;97545.00;;;;5044786;28;20223;-71
2021/11/20 08:56:25;;;;;;;5.33;3.50;;;5.30;99.90;5.20;97536.00;;;;5036509;28;20219;-72
2021/11/20 08:59:20;;;;;;;3.40;3.10;;;5.40;99.90;5.40;97539.00;;;;5045495;28;20208;-72
2021/11/20 09:02:19;;;;;;;4.40;3.03;;;5.50;99.90;5.40;97543.00;;;;5036140;28;20221;-72
2021/11/20 09:05:16;;;;;;;7.97;4.10;;;5.60;99.90;5.60;97547.00;;;;5031253;28;20197;-72
2021/11/20 09:08:10;;;;;;;5.87;3.60;;;5.70;99.90;5.90;97531.00;;;;5045961;28;20224;-72
2021/11/20 09:11:07;;;;;;;5.57;3.77;;;5.70;99.90;6.30;97534.00;;;;5042608;28;20698;-73
2021/11/20 09:14:15;;;;;;;8.43;3.60;;;6.00;99.90;6.70;97545.00;;;;5034632;28;20192;-73
2021/11/20 09:17:04;;;;;;;4.20;3.50;;;6.20;99.90;6.80;97540.00;;;;5041910;28;20591;-73
2021/11/20 09:19:54;;;;;;;6.77;3.73;;;6.50;99.90;6.50;97536.00;;;;5028186;28;20569;-73
2021/11/20 09:22:44;;;;;;;5.67;4.27;;;6.20;99.90;6.60;97537.00;;;;5037651;28;20239;-73
2021/11/20 09:25:34;;;;;;;4.90;3.57;;;6.70;99.90;7.10;97525.00;;;;5040297;28;20212;-72
2021/11/20 09:28:43;;;;;;;4.97;4.23;;;6.80;99.90;7.20;97524.00;;;;5033485;28;20750;-73
2021/11/20 09:31:36;;;;;;;6.20;3.80;;;7.00;99.90;7.40;97522.00;;;;5045682;28;20212;-74
2021/11/20 09:34:26;;;;;;;5.17;3.80;;;7.20;99.90;7.70;97521.00;;;;5034341;28;20214;-75
2021/11/20 09:37:15;;;;;;;5.83;3.67;;;7.40;99.90;8.00;97520.00;;;;5041085;28;20211;-74
2021/11/20 09:40:07;;;;;;;6.93;3.93;;;7.60;99.90;8.40;97515.00;;;;5038198;28;20208;-75
2021/11/20 09:43:04;;;;;;;7.07;5.10;;;7.80;99.90;8.60;97516.00;;;;5043432;28;20213;-74
2021/11/20 09:46:04;;;;;;;7.73;6.03;;;8.00;99.90;8.90;97510.00;;;;5035097;28;20220;-73
2021/11/20 09:48:56;;;;;;;9.40;6.50;;;8.30;99.90;9.20;97509.00;;;;5042101;28;20722;-73
2021/11/20 09:51:51;;;;;;;9.93;7.07;;;8.50;99.90;9.50;97505.00;;;;5042032;28;20235;-74
2021/11/20 09:54:42;;;;;;;8.37;6.93;;;8.70;99.90;9.60;97519.00;;;;5042051;28;20215;-74
2021/11/20 09:57:39;;;;;;;9.03;6.93;;;9.00;99.90;9.80;97515.00;;;;5040083;28;20219;-74
2021/11/20 10:01:04;;;;;;;11.00;7.53;;;9.20;99.90;10.10;97513.00;;;;5031368;28;20209;-74
2021/11/20 10:04:13;;;;;;;11.90;8.93;;;9.40;99.90;10.30;97513.00;;;;5041547;28;20219;-75
2021/11/20 10:07:15;;;;;;;16.40;12.07;;;9.60;99.90;10.60;97511.00;;;;5040533;28;20565;-74
2021/11/20 10:10:17;;;;;;;19.57;10.43;;;9.90;99.90;11.10;97505.00;;;;5043540;28;20204;-73
2021/11/20 10:13:13;;;;;;;16.73;10.63;;;10.20;99.90;11.80;97503.00;;;;5040283;28;20232;-74
2021/11/20 10:16:13;;;;;;;15.53;10.30;;;10.90;99.90;12.50;97498.00;;;;5034410;28;20212;-75
2021/11/20 10:19:11;;;;;;;15.97;10.47;;;11.80;99.90;12.90;97499.00;;;;5040542;28;20258;-76
2021/11/20 10:22:11;;;;;;;15.77;10.17;;;12.60;99.90;13.40;97495.00;;;;5036438;28;20224;-73
2021/11/20 10:25:18;;;;;;;13.73;10.60;;;13.10;99.90;13.10;97490.00;;;;5040853;28;20205;-75
2021/11/20 10:28:18;;;;;;;15.03;11.00;;;13.60;99.90;13.70;97495.00;;;;5031391;28;20224;-75
2021/11/20 10:31:15;;;;;;;13.80;10.17;;;13.80;99.90;13.70;97494.00;;;;5038160;28;20209;-76
2021/11/20 10:34:08;;;;;;;13.27;10.20;;;14.00;99.90;14.30;97482.00;;;;5041447;28;20212;-76
2021/11/20 10:37:09;;;;;;;13.43;10.73;;;14.20;99.90;14.20;97475.00;;;;5034224;28;20230;-75
2021/11/20 10:40:02;;;;;;;14.47;10.20;;;14.50;99.90;14.40;97474.00;;;;5045766;28;20209;-76
2021/11/20 10:43:00;;;;;;;13.27;10.03;;;14.60;99.90;14.80;97476.00;;;;5039419;28;20212;-75
2021/11/20 10:45:55;;;;;;;12.60;8.63;;;14.80;99.90;15.40;97474.00;;;;5035078;28;20205;-76
2021/11/20 10:48:49;;;;;;;14.20;9.40;;;15.10;99.90;15.50;97470.00;;;;5036022;28;20224;-75
2021/11/20 10:51:53;;;;;;;14.60;9.90;;;15.40;99.90;15.80;97477.00;;;;5043245;28;20224;-76
2021/11/20 10:55:14;;;;;;;12.60;10.27;;;15.60;99.90;16.00;97461.00;;;;5036642;28;20205;-76
2021/11/20 10:58:48;;;;;;;18.87;10.93;;;15.80;99.90;16.20;97463.00;;;;5035986;28;20213;-75
2021/11/20 11:02:33;;;;;;;15.53;10.50;;;16.10;99.90;15.60;97454.00;;;;5047175;28;20236;-75
2021/11/20 11:05:50;;;;;;;16.17;11.33;;;16.10;99.00;16.00;97450.00;;;;5026186;28;20197;-76
2021/11/20 11:08:44;;;;;;;16.00;11.10;;;16.10;98.90;15.60;97451.00;;;;5046171;28;20243;-75
2021/11/20 11:11:40;;;;;;;11.70;10.33;;;16.10;96.30;16.00;97446.00;;;;5044760;28;20216;-76
2021/11/20 11:14:50;;;;;;;14.10;10.50;;;16.10;98.00;16.20;97448.00;;;;5044205;28;20205;-76
2021/11/20 11:18:18;;;;;;;15.47;11.30;;;16.20;97.00;16.80;97457.00;;;;5032466;28;20201;-76
2021/11/20 11:21:54;;;;;;;16.77;12.50;;;16.50;97.50;16.10;97442.00;;;;5039348;28;20224;-76
2021/11/20 11:25:21;;;;;;;15.50;11.67;;;16.80;93.60;16.90;97439.00;;;;5034972;28;20207;-76
2021/11/20 11:28:28;;;;;;;14.23;10.80;;;16.90;94.10;17.40;97435.00;;;;4938592;28;20222;-74
2021/11/20 11:31:29;;;;;;;13.33;11.27;;;17.20;93.40;17.80;97436.00;;;;4942017;28;20219;-74
2021/11/20 11:34:27;;;;;;;13.63;11.37;;;17.40;92.90;18.00;97443.00;;;;5029053;28;20220;-73
2021/11/20 11:37:29;;;;;;;14.07;9.60;;;17.90;91.50;18.20;97438.00;;;;5035450;28;20201;-74
2021/11/20 11:40:31;;;;;;;13.90;10.30;;;18.00;90.40;18.60;97443.00;;;;5044406;28;20693;-74
2021/11/20 11:43:26;;;;;;;13.57;10.03;;;18.50;89.00;18.10;97440.00;;;;5039498;28;20638;-75
2021/11/20 11:46:29;;;;;;;13.83;10.33;;;18.70;84.20;18.00;97430.00;;;;5046202;28;20210;-76
2021/11/20 11:50:00;;;;;;;15.20;11.63;;;18.70;82.80;19.10;97425.00;;;;5034388;28;20224;-75
2021/11/20 11:52:56;;;;;;;14.40;11.83;;;19.00;82.80;19.50;97423.00;;;;5029238;28;20227;-76
2021/11/20 11:55:49;;;;;;;13.73;11.37;;;19.50;80.50;19.30;97407.00;;;;5040576;28;20706;-74
2021/11/20 11:58:58;;;;;;;15.63;10.90;;;19.70;77.90;19.80;97402.00;;;;5035168;28;20602;-75
2021/11/20 12:02:03;;;;;;;13.27;10.37;;;20.00;77.70;20.50;97411.00;;;;5030557;28;20206;-75
2021/11/20 12:05:20;;;;;;;12.00;9.43;;;20.40;75.30;20.80;97414.00;;;;5036851;28;20226;-75
2021/11/20 12:08:40;;;;;;;14.47;9.67;;;20.90;73.60;20.40;97408.00;;;;5044928;28;20208;-74
2021/11/20 12:11:38;;;;;;;10.37;9.27;;;21.10;69.90;21.10;97394.00;;;;5035532;28;20236;-76
2021/11/20 12:14:37;;;;;;;13.80;10.00;;;21.20;68.20;21.20;97397.00;;;;5037232;28;20208;-75
2021/11/20 12:17:35;;;;;;;11.60;8.87;;;21.60;67.20;21.80;97392.00;;;;5043501;28;20203;-76
2021/11/20 12:20:46;;;;;;;9.70;8.70;;;21.90;66.00;21.80;97397.00;;;;5032001;28;20230;-74
2021/11/20 12:23:48;;;;;;;11.20;8.88;;;22.10;64.80;22.00;97387.00;;;;5036382;28;20211;-75
2021/11/20 12:26:53;;;;;;;9.35;8.45;;;22.50;62.80;21.80;97382.00;;;;5030727;28;20196;-75
2021/11/20 12:30:04;;;;;;;10.30;9.20;;;22.60;61.80;21.10;97370.00;;;;5035309;28;20213;-75
2021/11/20 12:33:18;;;;;;;14.47;10.03;;;22.40;59.70;21.50;97364.00;;;;5044638;28;20222;-75
2021/11/20 12:36:28;;;;;;;12.37;10.20;;;22.30;60.20;22.20;97357.00;;;;5035709;28;20206;-75
2021/11/20 12:39:38;;;;;;;10.67;9.03;;;22.30;60.90;20.50;97363.00;;;;5039443;28;20230;-74
2021/11/20 12:42:59;;;;;;;12.53;9.23;;;22.30;58.90;21.20;97359.00;;;;5039620;28;20221;-75
2021/11/20 12:46:22;;;;;;;10.60;9.33;;;22.00;59.90;21.60;97358.00;;;;5025229;28;20207;-74
2021/11/20 12:49:27;;;;;;;10.60;8.20;;;22.00;60.10;21.50;97358.00;;;;5026004;28;20206;-75
2021/11/20 12:52:31;;;;;;;11.70;9.23;;;22.00;60.00;22.20;97348.00;;;;5035280;28;20709;-73
2021/11/20 12:55:45;;;;;;;12.18;10.23;;;22.30;59.70;21.70;97351.00;;;;5035401;28;20207;-73
2021/11/20 12:58:42;;;;;;;9.93;8.93;;;22.50;59.30;21.90;97333.00;;;;5033592;28;20225;-72
2021/11/20 13:01:54;;;;;;;13.07;9.80;;;22.40;58.90;22.20;97344.00;;;;5045820;28;20219;-73
2021/11/20 13:04:47;;;;;;;13.15;10.93;;;22.50;58.80;22.60;97339.00;;;;5043103;28;20241;-73
2021/11/20 13:07:50;;;;;;;12.85;10.90;;;22.80;58.20;22.10;97330.00;;;;5039166;28;20233;-75